Time;durP1;ratioP1;P1;durP2;ratioP2;P2;SDS_P1;SDS_P2;PMS_P1;PMS_P2;Temp;Humidity;BMP_temperature;BMP_pressure;BME280_temperature;BME280_humidity;BME280_pressure;Samples;Min_cycle;Max_cycle;Signal;HPM_P1;HPM_P2
2024/03/22 00:01:58;;;;;;;88.38;49.35;;;8.20;99.90;;;;;;4939196;28;20038;-70
2024/03/22 00:04:26;;;;;;;97.25;52.10;;;8.20;99.90;;;;;;4935437;28;20078;-69
2024/03/22 00:06:52;;;;;;;85.35;47.38;;;8.30;99.90;;;;;;4946683;28;21508;-70
2024/03/22 00:09:17;;;;;;;79.45;47.88;;;8.40;99.90;;;;;;4969658;28;20574;-70
2024/03/22 00:11:44;;;;;;;87.53;50.42;;;8.40;99.90;;;;;;4940779;28;20118;-70
2024/03/22 00:14:11;;;;;;;83.88;48.63;;;8.50;99.90;;;;;;4948996;28;20050;-70
2024/03/22 00:16:38;;;;;;;87.32;49.17;;;8.40;99.90;;;;;;4965494;28;20479;-69
2024/03/22 00:19:04;;;;;;;75.93;46.65;;;8.40;99.90;;;;;;4953861;28;20046;-70
2024/03/22 00:21:31;;;;;;;84.68;48.75;;;8.40;99.90;;;;;;4935399;28;20104;-70
2024/03/22 00:23:58;;;;;;;78.43;46.50;;;8.50;99.90;;;;;;4965257;28;20042;-70
2024/03/22 00:26:24;;;;;;;80.93;45.67;;;8.50;99.90;;;;;;4967790;28;20042;-69
2024/03/22 00:28:50;;;;;;;83.53;46.88;;;8.50;99.90;;;;;;4949107;28;20057;-71
2024/03/22 00:31:17;;;;;;;77.30;46.15;;;8.60;99.90;;;;;;4935795;28;20535;-70
2024/03/22 00:33:43;;;;;;;70.68;44.35;;;8.60;99.90;;;;;;4956787;28;20044;-69
2024/03/22 00:36:09;;;;;;;72.78;44.85;;;8.60;99.90;;;;;;4968527;28;20106;-71
2024/03/22 00:38:35;;;;;;;72.68;44.35;;;8.60;99.90;;;;;;4967443;28;20060;-70
2024/03/22 00:41:02;;;;;;;73.30;45.13;;;8.70;99.90;;;;;;4967738;28;20045;-70
2024/03/22 00:43:28;;;;;;;68.93;42.22;;;8.70;99.90;;;;;;4936788;28;20047;-70
2024/03/22 00:45:54;;;;;;;66.35;43.30;;;8.70;99.90;;;;;;4929905;28;22624;-69
2024/03/22 00:48:20;;;;;;;68.95;44.53;;;8.80;99.90;;;;;;4932271;28;20130;-69
2024/03/22 00:50:46;;;;;;;71.88;45.75;;;8.80;99.90;;;;;;4939009;28;20075;-69
2024/03/22 00:53:12;;;;;;;65.68;41.15;;;8.90;99.90;;;;;;4968972;28;20104;-70
2024/03/22 00:55:39;;;;;;;66.68;43.67;;;8.90;99.90;;;;;;4961442;28;20043;-69
2024/03/22 00:58:05;;;;;;;69.70;43.05;;;8.90;99.90;;;;;;4951999;28;20058;-70
2024/03/22 01:00:31;;;;;;;72.65;43.35;;;9.00;99.90;;;;;;4946854;28;20057;-71
2024/03/22 01:02:57;;;;;;;72.45;43.33;;;9.00;99.90;;;;;;4951356;28;20146;-70
2024/03/22 01:05:23;;;;;;;71.47;45.60;;;9.10;99.90;;;;;;4936477;28;20129;-69
2024/03/22 01:07:50;;;;;;;77.25;44.50;;;9.10;99.90;;;;;;4959447;28;20026;-69
2024/03/22 01:10:16;;;;;;;70.75;45.05;;;9.10;99.90;;;;;;4971142;28;20108;-71
2024/03/22 01:12:42;;;;;;;72.75;44.17;;;9.10;99.90;;;;;;4966363;28;20061;-70
2024/03/22 01:15:09;;;;;;;74.85;44.78;;;9.20;99.90;;;;;;4952373;28;20046;-70
2024/03/22 01:17:35;;;;;;;75.70;44.95;;;9.10;99.90;;;;;;4952030;28;20112;-71
2024/03/22 01:20:01;;;;;;;68.78;44.97;;;9.00;99.90;;;;;;4937056;28;20046;-69
2024/03/22 01:22:27;;;;;;;75.95;45.95;;;9.00;99.90;;;;;;4962842;28;20076;-70
2024/03/22 01:24:54;;;;;;;73.55;43.47;;;9.00;99.90;;;;;;4953009;28;20065;-69
2024/03/22 01:27:20;;;;;;;77.90;45.22;;;9.00;99.90;;;;;;4949807;28;20042;-69
2024/03/22 01:29:47;;;;;;;70.57;41.13;;;9.00;99.90;;;;;;4963726;28;20115;-70
2024/03/22 01:32:13;;;;;;;67.65;41.88;;;9.00;99.90;;;;;;4953185;28;20053;-70
2024/03/22 01:34:40;;;;;;;70.10;42.50;;;9.00;99.90;;;;;;4954696;28;20695;-69
2024/03/22 01:37:06;;;;;;;74.30;45.15;;;9.00;99.90;;;;;;4968695;28;20535;-71
2024/03/22 01:39:32;;;;;;;71.32;43.38;;;9.00;99.90;;;;;;4955195;28;20047;-70
2024/03/22 01:41:58;;;;;;;72.65;44.25;;;9.00;99.90;;;;;;4947470;28;20062;-70
2024/03/22 01:44:28;;;;;;;70.25;44.45;;;9.00;99.90;;;;;;4934892;28;20046;-70
2024/03/22 01:46:55;;;;;;;74.32;43.97;;;9.10;99.90;;;;;;4952579;28;20134;-71
2024/03/22 01:49:24;;;;;;;71.63;42.95;;;9.00;99.90;;;;;;4953096;28;20573;-70
2024/03/22 01:51:52;;;;;;;68.85;41.03;;;9.00;99.90;;;;;;4995046;28;20054;-71
2024/03/22 01:54:19;;;;;;;69.80;42.15;;;9.00;99.90;;;;;;4938422;28;20054;-70
2024/03/22 01:56:46;;;;;;;75.22;43.95;;;9.00;99.90;;;;;;4951006;28;20049;-69
2024/03/22 01:59:13;;;;;;;75.65;42.60;;;9.00;99.90;;;;;;4938396;28;20053;-70
2024/03/22 02:01:40;;;;;;;70.82;40.78;;;9.00;99.90;;;;;;4944633;28;20050;-69
2024/03/22 02:04:31;;;;;;;76.82;43.33;;;9.00;99.90;;;;;;4928943;28;20110;-69
2024/03/22 02:06:57;;;;;;;78.63;45.90;;;9.10;99.90;;;;;;4947844;28;20049;-70
2024/03/22 02:09:23;;;;;;;70.40;41.83;;;9.00;99.90;;;;;;4968213;28;20038;-70
2024/03/22 02:11:49;;;;;;;70.47;41.70;;;9.00;99.90;;;;;;4951964;28;20034;-71
2024/03/22 02:14:15;;;;;;;74.47;42.78;;;9.10;99.90;;;;;;4954160;28;20054;-70
2024/03/22 02:16:41;;;;;;;66.78;42.45;;;9.10;99.90;;;;;;4966628;28;20129;-70
2024/03/22 02:19:08;;;;;;;70.53;41.28;;;9.20;99.90;;;;;;4968984;28;20050;-70
2024/03/22 02:21:35;;;;;;;66.18;40.80;;;9.20;99.90;;;;;;4968282;28;20045;-70
2024/03/22 02:24:02;;;;;;;70.90;41.67;;;9.20;99.90;;;;;;4915067;28;20070;-70
2024/03/22 02:26:29;;;;;;;66.82;39.00;;;9.20;99.90;;;;;;4966536;28;20097;-70
2024/03/22 02:28:55;;;;;;;69.57;40.13;;;9.20;99.90;;;;;;4952807;28;20096;-68
2024/03/22 02:31:21;;;;;;;67.72;39.30;;;9.20;99.90;;;;;;4956874;28;20042;-71
2024/03/22 02:33:47;;;;;;;61.17;36.28;;;9.20;99.90;;;;;;4966897;28;20063;-69
2024/03/22 02:36:13;;;;;;;60.65;38.50;;;9.20;99.90;;;;;;4951330;28;20047;-70
2024/03/22 02:38:40;;;;;;;67.13;40.75;;;9.30;99.90;;;;;;4949784;28;20142;-70
2024/03/22 02:41:06;;;;;;;64.55;38.30;;;9.30;99.90;;;;;;4954045;28;20039;-69
2024/03/22 02:43:32;;;;;;;62.17;38.80;;;9.30;99.90;;;;;;4937325;28;20462;-70
2024/03/22 02:45:58;;;;;;;63.08;39.22;;;9.40;99.90;;;;;;4953292;28;20065;-71
2024/03/22 02:48:24;;;;;;;62.22;39.03;;;9.50;99.90;;;;;;4972500;28;20479;-70
2024/03/22 02:50:55;;;;;;;58.47;37.22;;;9.50;99.90;;;;;;4951099;28;20046;-71
2024/03/22 02:53:22;;;;;;;59.92;36.88;;;9.50;99.90;;;;;;4934744;28;20105;-70
2024/03/22 02:55:48;;;;;;;56.47;35.97;;;9.50;99.90;;;;;;4950977;28;20047;-69
2024/03/22 02:58:14;;;;;;;56.95;36.20;;;9.50;99.90;;;;;;4970399;28;20049;-69
2024/03/22 03:00:40;;;;;;;60.90;37.00;;;9.60;99.90;;;;;;4968639;28;20699;-70
2024/03/22 03:03:07;;;;;;;58.22;38.38;;;9.60;99.90;;;;;;4940424;28;20088;-70
2024/03/22 03:05:34;;;;;;;60.45;38.15;;;9.60;99.90;;;;;;4964118;28;20778;-69
2024/03/22 03:08:01;;;;;;;59.85;36.70;;;9.60;99.90;;;;;;4949396;28;20050;-71
2024/03/22 03:10:27;;;;;;;59.50;36.92;;;9.60;99.90;;;;;;4972450;28;20045;-70
2024/03/22 03:12:57;;;;;;;62.97;37.33;;;9.60;99.90;;;;;;4950683;28;20095;-71
2024/03/22 03:15:23;;;;;;;64.63;38.60;;;9.70;99.90;;;;;;4942648;28;20100;-70
2024/03/22 03:17:51;;;;;;;64.32;40.72;;;9.70;99.90;;;;;;4949796;28;20090;-70
2024/03/22 03:20:17;;;;;;;61.55;37.38;;;9.70;99.90;;;;;;4957029;28;20727;-69
2024/03/22 03:22:43;;;;;;;60.75;38.05;;;9.70;99.90;;;;;;4951856;28;20594;-68
2024/03/22 03:25:09;;;;;;;62.63;38.10;;;9.70;99.90;;;;;;4971204;28;20139;-69
2024/03/22 03:27:35;;;;;;;65.30;37.70;;;9.70;99.90;;;;;;4978744;28;20042;-71
2024/03/22 03:30:02;;;;;;;59.55;35.30;;;9.70;99.90;;;;;;4969129;28;20058;-70
2024/03/22 03:32:28;;;;;;;63.63;36.80;;;9.70;99.90;;;;;;4969211;28;20073;-70
2024/03/22 03:34:54;;;;;;;57.55;34.42;;;9.80;99.90;;;;;;4951748;28;20435;-69
2024/03/22 03:37:20;;;;;;;57.22;35.72;;;9.70;99.90;;;;;;4954318;28;20704;-70
2024/03/22 03:39:47;;;;;;;62.20;36.17;;;9.80;99.90;;;;;;4969222;28;20461;-70
2024/03/22 03:42:13;;;;;;;60.40;35.42;;;9.80;99.90;;;;;;4964153;28;20081;-70
2024/03/22 03:44:40;;;;;;;62.45;36.50;;;9.80;99.90;;;;;;4980320;28;20061;-70
2024/03/22 03:47:06;;;;;;;59.40;36.63;;;9.80;99.90;;;;;;4940532;28;20042;-70
2024/03/22 03:49:32;;;;;;;62.13;37.58;;;9.80;99.90;;;;;;4953724;28;20411;-70
2024/03/22 03:51:59;;;;;;;64.70;38.63;;;9.80;99.90;;;;;;4969278;28;20038;-71
2024/03/22 03:54:25;;;;;;;59.50;35.83;;;9.90;99.90;;;;;;4942878;28;20281;-70
2024/03/22 03:56:51;;;;;;;60.95;35.78;;;9.80;99.90;;;;;;4970681;28;21791;-70
2024/03/22 03:59:17;;;;;;;62.10;35.70;;;9.80;99.90;;;;;;4943148;28;20046;-70
2024/03/22 04:01:43;;;;;;;64.65;36.50;;;9.70;99.90;;;;;;4970055;28;20057;-70
2024/03/22 04:04:09;;;;;;;64.43;36.90;;;9.70;99.90;;;;;;4948685;28;20062;-71
2024/03/22 04:06:36;;;;;;;61.75;36.92;;;9.80;99.90;;;;;;4969838;28;20112;-70
2024/03/22 04:09:02;;;;;;;55.05;34.72;;;9.80;99.90;;;;;;4952521;28;20750;-69
2024/03/22 04:11:29;;;;;;;57.50;34.88;;;9.80;99.90;;;;;;4938018;28;20037;-70
2024/03/22 04:13:55;;;;;;;61.53;37.42;;;9.80;99.90;;;;;;4961839;28;20154;-70
2024/03/22 04:16:21;;;;;;;57.08;35.08;;;9.80;99.90;;;;;;4950346;28;20517;-69
2024/03/22 04:18:47;;;;;;;62.33;35.83;;;9.80;99.90;;;;;;4950617;28;20054;-68
2024/03/22 04:21:13;;;;;;;59.13;34.63;;;9.70;99.90;;;;;;4955012;28;20084;-70
2024/03/22 04:23:39;;;;;;;56.08;34.40;;;9.70;99.90;;;;;;4967688;28;20707;-70
2024/03/22 04:26:05;;;;;;;54.08;33.17;;;9.70;99.90;;;;;;4952289;28;20045;-70
2024/03/22 04:28:31;;;;;;;50.72;33.17;;;9.70;99.90;;;;;;4932205;28;20149;-70
2024/03/22 04:31:02;;;;;;;53.60;32.28;;;9.70;99.90;;;;;;4968384;28;20236;-69
2024/03/22 04:33:28;;;;;;;46.88;31.73;;;9.70;99.90;;;;;;4958344;28;20053;-69
2024/03/22 04:35:58;;;;;;;51.83;32.17;;;9.70;99.90;;;;;;4949806;28;20833;-69
2024/03/22 04:38:25;;;;;;;55.83;34.58;;;9.80;99.90;;;;;;4957775;28;20131;-70
2024/03/22 04:40:51;;;;;;;48.33;32.05;;;9.80;99.90;;;;;;4971337;28;20053;-69
2024/03/22 04:43:18;;;;;;;47.58;31.13;;;9.80;99.90;;;;;;4994130;28;20058;-70
2024/03/22 04:45:46;;;;;;;45.92;30.42;;;9.80;99.90;;;;;;4959313;28;20054;-71
2024/03/22 04:48:18;;;;;;;47.83;31.17;;;9.80;99.90;;;;;;4958194;28;20073;-70
2024/03/22 04:50:45;;;;;;;45.78;31.67;;;9.80;99.90;;;;;;4950345;28;20224;-70
2024/03/22 04:53:13;;;;;;;50.92;33.20;;;9.80;99.90;;;;;;4968004;28;20141;-69
2024/03/22 04:55:44;;;;;;;46.42;30.80;;;9.70;99.90;;;;;;4937557;28;20054;-69
2024/03/22 04:58:20;;;;;;;48.58;32.40;;;9.80;99.90;;;;;;4957260;28;20058;-70
2024/03/22 05:00:48;;;;;;;44.83;30.15;;;9.70;99.90;;;;;;4952678;28;20048;-69
2024/03/22 05:03:15;;;;;;;53.00;34.40;;;9.70;99.90;;;;;;4937645;28;20478;-70
2024/03/22 05:05:42;;;;;;;47.47;31.60;;;9.70;99.90;;;;;;4946337;28;20528;-70
2024/03/22 05:08:08;;;;;;;47.90;32.38;;;9.70;99.90;;;;;;4955053;28;20045;-70
2024/03/22 05:10:34;;;;;;;46.45;32.20;;;9.60;99.90;;;;;;4973843;28;20050;-69
2024/03/22 05:13:01;;;;;;;51.47;32.47;;;9.60;99.90;;;;;;4948519;28;20105;-70
2024/03/22 05:15:28;;;;;;;47.22;31.08;;;9.60;99.90;;;;;;4966947;28;20050;-71
2024/03/22 05:17:55;;;;;;;47.05;31.23;;;9.60;99.90;;;;;;4953529;28;20054;-70
2024/03/22 05:20:21;;;;;;;45.20;29.42;;;9.60;99.90;;;;;;4954595;28;20052;-69
2024/03/22 05:22:48;;;;;;;46.78;30.80;;;9.70;99.90;;;;;;4958442;28;20104;-69
2024/03/22 05:25:15;;;;;;;48.83;30.75;;;9.60;99.90;;;;;;4967731;28;20530;-69
2024/03/22 05:27:42;;;;;;;44.70;32.17;;;9.70;99.90;;;;;;4951482;28;20054;-69
2024/03/22 05:30:11;;;;;;;44.92;31.15;;;9.80;99.90;;;;;;4951570;28;20137;-71
2024/03/22 05:32:38;;;;;;;45.92;32.60;;;9.70;99.90;;;;;;4955940;28;20050;-70
2024/03/22 05:35:05;;;;;;;46.40;34.60;;;9.80;99.90;;;;;;4967230;28;20606;-70
2024/03/22 05:37:31;;;;;;;46.05;31.75;;;9.80;99.90;;;;;;4980066;28;20044;-70
2024/03/22 05:39:57;;;;;;;47.67;30.98;;;9.70;99.90;;;;;;4959614;28;20585;-69
2024/03/22 05:42:23;;;;;;;50.08;32.90;;;9.70;99.90;;;;;;4967296;28;20057;-69
2024/03/22 05:44:49;;;;;;;46.13;31.55;;;9.70;99.90;;;;;;4978381;28;20042;-70
2024/03/22 05:47:15;;;;;;;47.53;33.25;;;9.80;99.90;;;;;;4967511;28;20065;-71
2024/03/22 05:49:42;;;;;;;47.03;31.27;;;9.80;99.90;;;;;;4977357;28;20050;-69
2024/03/22 05:52:08;;;;;;;49.05;30.98;;;9.80;99.90;;;;;;4941176;28;20045;-69
2024/03/22 05:54:35;;;;;;;49.83;31.05;;;9.80;99.90;;;;;;4955523;28;20507;-71
2024/03/22 05:57:02;;;;;;;49.58;34.30;;;9.80;99.90;;;;;;4971648;28;20061;-70
2024/03/22 05:59:28;;;;;;;47.85;32.00;;;9.90;99.90;;;;;;4952646;28;20701;-70
2024/03/22 06:01:54;;;;;;;44.67;32.85;;;9.90;99.90;;;;;;4945324;28;20039;-70
2024/03/22 06:04:21;;;;;;;45.85;31.85;;;9.90;99.90;;;;;;4949478;28;20090;-69
2024/03/22 06:06:47;;;;;;;44.58;32.40;;;9.90;99.90;;;;;;4954104;28;21425;-70
2024/03/22 06:09:19;;;;;;;50.45;32.40;;;10.00;99.90;;;;;;4935816;28;20583;-69
2024/03/22 06:11:45;;;;;;;46.85;32.58;;;10.00;99.90;;;;;;4952527;28;20097;-69
2024/03/22 06:14:11;;;;;;;46.40;32.58;;;10.10;99.90;;;;;;4971450;28;20053;-70
2024/03/22 06:16:37;;;;;;;44.15;32.25;;;10.10;99.90;;;;;;4957034;28;20046;-70
2024/03/22 06:19:03;;;;;;;41.20;31.35;;;10.10;99.90;;;;;;4941471;28;20065;-69
2024/03/22 06:21:29;;;;;;;47.22;32.40;;;10.20;99.90;;;;;;4951447;28;20161;-70
2024/03/22 06:23:55;;;;;;;50.10;34.83;;;10.20;99.90;;;;;;4949922;28;20038;-69
2024/03/22 06:26:21;;;;;;;48.85;34.85;;;10.30;99.90;;;;;;4954275;28;20050;-69
2024/03/22 06:28:48;;;;;;;44.53;33.88;;;10.30;99.90;;;;;;4970138;28;21070;-70
2024/03/22 06:31:14;;;;;;;44.42;33.88;;;10.40;99.90;;;;;;4949516;28;21202;-69
2024/03/22 06:33:40;;;;;;;45.95;33.97;;;10.40;99.90;;;;;;4956195;28;20112;-70
2024/03/22 06:36:07;;;;;;;47.78;34.83;;;10.40;99.90;;;;;;4952344;28;20228;-68
2024/03/22 06:38:34;;;;;;;49.10;33.78;;;10.40;99.90;;;;;;4957655;28;20054;-70
2024/03/22 06:41:01;;;;;;;41.67;31.77;;;10.50;99.90;;;;;;4972470;28;20041;-70
2024/03/22 06:43:27;;;;;;;51.00;35.17;;;10.60;99.90;;;;;;4954386;28;20056;-70
2024/03/22 06:45:53;;;;;;;42.75;32.30;;;10.70;99.90;;;;;;4958318;28;20049;-70
2024/03/22 06:48:19;;;;;;;40.53;32.88;;;10.70;99.90;;;;;;4937495;28;20660;-71
2024/03/22 06:50:45;;;;;;;39.47;30.67;;;10.70;99.90;;;;;;4958141;28;20119;-70
2024/03/22 06:53:12;;;;;;;43.08;31.50;;;10.80;99.90;;;;;;4955459;28;20054;-69
2024/03/22 06:55:38;;;;;;;43.95;32.28;;;10.80;99.90;;;;;;4955341;28;20054;-70
2024/03/22 06:58:04;;;;;;;41.75;33.50;;;10.80;99.90;;;;;;4956005;28;20054;-71
2024/03/22 07:00:30;;;;;;;40.97;33.30;;;10.80;99.90;;;;;;4961352;28;20046;-68
2024/03/22 07:02:57;;;;;;;40.78;34.15;;;10.90;99.90;;;;;;4972997;28;20534;-69
2024/03/22 07:05:23;;;;;;;43.38;34.90;;;10.90;99.90;;;;;;4978746;28;20054;-69
2024/03/22 07:07:55;;;;;;;43.25;35.60;;;11.10;99.90;;;;;;4958526;28;20085;-70
2024/03/22 07:10:23;;;;;;;36.03;32.10;;;11.10;99.90;;;;;;4939123;28;20088;-69
2024/03/22 07:12:49;;;;;;;39.75;32.92;;;11.20;99.90;;;;;;4968703;28;20761;-71
2024/03/22 07:15:16;;;;;;;39.95;33.88;;;11.20;99.90;;;;;;4964401;28;20029;-68
2024/03/22 07:17:42;;;;;;;42.95;33.85;;;11.20;99.90;;;;;;4969150;28;20046;-70
2024/03/22 07:20:08;;;;;;;36.78;32.70;;;11.20;99.90;;;;;;4953525;28;20778;-70
2024/03/22 07:22:34;;;;;;;36.65;32.65;;;11.20;99.90;;;;;;4956695;28;20061;-70
2024/03/22 07:25:01;;;;;;;37.10;32.85;;;11.30;99.90;;;;;;4966955;28;20058;-69
2024/03/22 07:27:29;;;;;;;38.30;32.45;;;11.30;99.90;;;;;;4974066;28;20121;-70
2024/03/22 07:29:55;;;;;;;37.83;33.85;;;11.30;99.90;;;;;;4964430;28;20121;-69
2024/03/22 07:32:22;;;;;;;39.33;32.15;;;11.30;99.90;;;;;;4932304;28;20046;-70
2024/03/22 07:34:48;;;;;;;37.95;33.60;;;11.40;99.90;;;;;;4965481;28;20112;-70
2024/03/22 07:37:14;;;;;;;37.08;32.53;;;11.40;99.90;;;;;;4966552;28;20570;-69
2024/03/22 07:39:41;;;;;;;36.08;32.17;;;11.40;99.90;;;;;;4972346;28;20081;-70
2024/03/22 07:42:07;;;;;;;36.63;32.70;;;11.40;99.90;;;;;;4936064;28;20615;-69
2024/03/22 07:44:33;;;;;;;39.38;35.13;;;11.50;99.90;;;;;;4933004;28;20100;-70
2024/03/22 07:46:59;;;;;;;36.05;31.98;;;11.50;99.90;;;;;;4955577;28;20045;-68
2024/03/22 07:49:26;;;;;;;37.33;32.85;;;11.50;99.90;;;;;;4954624;28;20049;-69
2024/03/22 07:51:53;;;;;;;36.38;32.78;;;11.50;99.90;;;;;;4951713;28;20121;-70
2024/03/22 07:54:20;;;;;;;38.38;34.35;;;11.60;99.90;;;;;;4949425;28;20941;-72
2024/03/22 07:56:46;;;;;;;37.55;33.65;;;11.60;99.90;;;;;;4957164;28;20049;-70
2024/03/22 07:59:13;;;;;;;38.17;34.08;;;11.70;99.90;;;;;;4950617;28;20057;-70
2024/03/22 08:01:38;;;;;;;36.55;32.70;;;11.70;99.90;;;;;;4951166;28;20049;-69
2024/03/22 08:04:05;;;;;;;38.83;34.75;;;11.80;99.90;;;;;;4944948;28;20051;-69
2024/03/22 08:06:31;;;;;;;35.85;32.47;;;11.80;99.90;;;;;;4968346;28;20048;-69
2024/03/22 08:08:57;;;;;;;37.60;33.65;;;11.90;99.90;;;;;;4956740;28;20042;-70
2024/03/22 08:11:23;;;;;;;40.15;36.30;;;11.90;99.90;;;;;;4969885;28;20042;-70
2024/03/22 08:13:49;;;;;;;42.60;38.58;;;12.00;99.90;;;;;;4963673;28;20062;-69
2024/03/22 08:16:16;;;;;;;41.53;37.30;;;12.00;99.90;;;;;;4950435;28;20053;-70
2024/03/22 08:18:42;;;;;;;40.95;37.40;;;12.00;99.90;;;;;;4961438;28;20535;-71
2024/03/22 08:21:08;;;;;;;42.47;38.78;;;12.10;99.90;;;;;;4959364;28;20535;-70
2024/03/22 08:23:34;;;;;;;39.40;35.80;;;12.10;99.90;;;;;;4957317;28;20050;-69
2024/03/22 08:26:02;;;;;;;38.10;34.63;;;12.20;99.90;;;;;;4959558;28;20667;-69
2024/03/22 08:28:28;;;;;;;39.53;35.58;;;12.10;99.90;;;;;;4940054;28;20180;-70
2024/03/22 08:30:54;;;;;;;38.08;34.60;;;12.20;99.90;;;;;;4965771;28;20049;-70
2024/03/22 08:33:20;;;;;;;36.78;31.75;;;12.20;99.90;;;;;;4966571;28;20061;-70
2024/03/22 08:35:48;;;;;;;35.75;32.20;;;12.30;99.90;;;;;;4952149;28;20133;-70
2024/03/22 08:38:14;;;;;;;35.75;32.35;;;12.40;99.90;;;;;;4975086;28;20713;-70
2024/03/22 08:40:40;;;;;;;37.20;33.30;;;12.40;99.90;;;;;;4951123;28;20046;-70
2024/03/22 08:43:09;;;;;;;36.88;33.38;;;12.60;99.90;;;;;;4968035;28;20057;-71
2024/03/22 08:45:36;;;;;;;34.03;30.73;;;12.70;99.90;;;;;;4952127;28;20046;-70
2024/03/22 08:48:02;;;;;;;36.80;33.50;;;12.70;99.90;;;;;;4952006;28;20062;-70
2024/03/22 08:50:28;;;;;;;35.53;32.30;;;12.80;99.90;;;;;;4934397;28;20134;-68
2024/03/22 08:52:54;;;;;;;33.72;30.73;;;12.70;99.90;;;;;;4951175;28;20050;-69
2024/03/22 08:55:21;;;;;;;36.30;32.67;;;12.80;99.90;;;;;;4944083;28;20050;-70
2024/03/22 08:57:47;;;;;;;35.90;32.55;;;12.80;99.90;;;;;;4972376;28;20554;-68
2024/03/22 09:00:13;;;;;;;35.28;32.22;;;13.00;99.90;;;;;;4959590;28;20145;-69
2024/03/22 09:02:39;;;;;;;34.50;31.58;;;13.10;99.90;;;;;;4952535;28;21115;-70
2024/03/22 09:05:06;;;;;;;36.58;33.58;;;13.20;99.90;;;;;;4951731;28;20042;-70
2024/03/22 09:07:32;;;;;;;36.13;33.22;;;13.20;99.90;;;;;;4969047;28;20043;-70
2024/03/22 09:09:58;;;;;;;35.78;32.42;;;13.10;99.90;;;;;;4956258;28;20058;-71
2024/03/22 09:12:24;;;;;;;36.72;33.58;;;13.20;99.90;;;;;;4949868;28;20686;-70
2024/03/22 09:14:51;;;;;;;38.65;34.95;;;13.20;99.90;;;;;;4958798;28;21022;-70
2024/03/22 09:17:17;;;;;;;38.97;35.40;;;13.20;99.90;;;;;;4965445;28;20050;-70
2024/03/22 09:19:43;;;;;;;38.28;34.42;;;13.10;99.90;;;;;;4972014;28;20124;-70
2024/03/22 09:22:09;;;;;;;39.60;36.03;;;13.10;99.90;;;;;;4938230;28;20428;-70
2024/03/22 09:24:36;;;;;;;38.53;34.95;;;13.20;99.90;;;;;;4967940;28;20084;-71
2024/03/22 09:27:08;;;;;;;36.92;33.47;;;13.20;99.90;;;;;;4970265;28;20042;-69
2024/03/22 09:29:35;;;;;;;40.13;36.40;;;13.40;99.90;;;;;;4937031;28;20105;-70
2024/03/22 09:32:02;;;;;;;39.75;35.50;;;13.50;99.90;;;;;;4937031;28;20654;-70
2024/03/22 09:34:29;;;;;;;39.15;35.55;;;13.50;99.90;;;;;;4931612;28;20046;-70
2024/03/22 09:36:56;;;;;;;39.53;35.63;;;13.50;99.90;;;;;;4969537;28;20038;-69
2024/03/22 09:39:23;;;;;;;41.80;37.53;;;13.50;99.90;;;;;;4961838;28;21650;-71
2024/03/22 09:41:50;;;;;;;41.70;37.70;;;13.70;99.90;;;;;;4956964;28;20430;-70
2024/03/22 09:44:21;;;;;;;39.15;35.33;;;13.70;99.90;;;;;;4945886;28;20039;-70
2024/03/22 09:46:50;;;;;;;41.30;37.25;;;13.60;99.90;;;;;;4962959;28;20045;-69
2024/03/22 09:49:16;;;;;;;40.90;37.10;;;13.70;99.90;;;;;;4957945;28;20049;-70
2024/03/22 09:51:43;;;;;;;42.53;38.72;;;13.70;99.90;;;;;;4953550;28;20243;-70
2024/03/22 09:54:10;;;;;;;41.88;37.92;;;13.70;99.90;;;;;;4944104;28;20043;-70
2024/03/22 09:56:40;;;;;;;39.28;35.78;;;13.70;99.90;;;;;;4950324;28;20049;-70
2024/03/22 09:59:06;;;;;;;41.60;37.83;;;13.80;99.90;;;;;;4959781;28;20060;-69
2024/03/22 10:01:34;;;;;;;40.78;36.85;;;13.80;99.90;;;;;;4962024;28;20052;-70
2024/03/22 10:04:01;;;;;;;40.10;36.20;;;13.90;99.90;;;;;;4952079;28;21038;-69
2024/03/22 10:06:29;;;;;;;40.00;36.35;;;14.00;99.90;;;;;;4932905;28;20135;-69
2024/03/22 10:08:59;;;;;;;40.15;36.45;;;14.00;99.90;;;;;;4957751;28;20109;-70
2024/03/22 10:11:28;;;;;;;44.10;39.88;;;14.00;99.90;;;;;;4947140;28;20803;-71
2024/03/22 10:13:55;;;;;;;41.35;37.45;;;14.10;99.90;;;;;;4952628;28;20050;-70
2024/03/22 10:16:22;;;;;;;40.55;36.88;;;14.10;99.90;;;;;;4944621;28;20054;-69
2024/03/22 10:18:48;;;;;;;45.90;41.85;;;14.20;99.90;;;;;;4942028;28;20046;-71
2024/03/22 10:21:21;;;;;;;43.92;39.95;;;14.20;99.90;;;;;;4950829;28;20050;-70
2024/03/22 10:23:48;;;;;;;46.22;41.75;;;14.20;99.90;;;;;;4947339;28;20054;-70
2024/03/22 10:26:15;;;;;;;45.65;42.05;;;14.20;99.90;;;;;;4950200;28;20053;-68
2024/03/22 10:28:45;;;;;;;45.25;41.28;;;14.30;99.90;;;;;;4966540;28;20050;-69
2024/03/22 10:31:12;;;;;;;42.53;39.03;;;14.30;99.90;;;;;;4948111;28;20043;-70
2024/03/22 10:33:41;;;;;;;42.60;38.75;;;14.40;99.90;;;;;;4956635;28;20050;-70
2024/03/22 10:36:09;;;;;;;44.20;40.70;;;14.30;99.90;;;;;;4947195;28;20124;-67
2024/03/22 10:38:39;;;;;;;44.28;40.50;;;14.00;99.90;;;;;;4970169;28;20066;-69
2024/03/22 10:41:05;;;;;;;44.85;40.53;;;13.90;99.90;;;;;;4950020;28;20215;-69
2024/03/22 10:43:32;;;;;;;43.58;39.10;;;13.80;99.90;;;;;;4945668;28;20726;-70
2024/03/22 10:46:03;;;;;;;43.78;39.55;;;13.90;99.90;;;;;;4933197;28;20039;-68
2024/03/22 10:48:31;;;;;;;45.50;41.53;;;13.90;99.90;;;;;;4945658;28;20836;-69
2024/03/22 10:51:01;;;;;;;44.72;40.70;;;13.80;99.90;;;;;;4958378;28;20084;-69
2024/03/22 10:53:32;;;;;;;49.10;44.40;;;13.90;99.90;;;;;;4950255;28;20439;-68
2024/03/22 10:56:01;;;;;;;46.42;42.22;;;13.90;99.90;;;;;;4952395;28;20056;-68
2024/03/22 10:58:27;;;;;;;47.33;42.83;;;13.80;99.90;;;;;;4964563;28;20065;-68
2024/03/22 11:00:55;;;;;;;47.72;43.20;;;13.80;99.90;;;;;;4964092;28;20239;-71
2024/03/22 11:03:23;;;;;;;48.97;44.55;;;13.90;99.90;;;;;;4948155;28;20047;-69
2024/03/22 11:05:54;;;;;;;48.22;43.72;;;13.90;99.90;;;;;;4953816;28;20045;-69
2024/03/22 11:08:25;;;;;;;48.15;43.85;;;14.00;99.90;;;;;;4968411;28;20058;-71
2024/03/22 11:10:52;;;;;;;53.03;47.92;;;14.20;99.90;;;;;;4958547;28;20038;-70
2024/03/22 11:13:21;;;;;;;50.17;45.75;;;14.20;99.90;;;;;;4962706;28;20157;-68
2024/03/22 11:15:51;;;;;;;46.92;42.97;;;14.40;99.90;;;;;;4945454;28;20051;-70
2024/03/22 11:18:17;;;;;;;48.08;43.97;;;14.50;99.90;;;;;;4933415;28;20062;-71
2024/03/22 11:20:47;;;;;;;52.67;48.13;;;14.60;99.90;;;;;;4948337;28;20319;-69
2024/03/22 11:23:13;;;;;;;49.03;44.08;;;14.60;99.90;;;;;;4953984;28;20122;-69
2024/03/22 11:25:39;;;;;;;47.00;42.83;;;14.70;99.90;;;;;;4946723;28;20644;-69
2024/03/22 11:28:05;;;;;;;50.63;46.00;;;14.70;99.90;;;;;;4922054;28;20058;-70
2024/03/22 11:30:33;;;;;;;52.38;47.70;;;14.90;99.90;;;;;;4932032;28;20039;-69
2024/03/22 11:33:05;;;;;;;49.80;45.30;;;15.10;99.90;;;;;;4951610;28;20046;-70
2024/03/22 11:35:31;;;;;;;50.00;45.83;;;15.50;99.90;;;;;;4929553;28;20074;-70
2024/03/22 11:37:58;;;;;;;52.47;47.55;;;15.40;99.90;;;;;;4930837;28;20126;-69
2024/03/22 11:40:29;;;;;;;51.47;46.88;;;15.40;99.90;;;;;;4934295;28;20058;-69
2024/03/22 11:42:57;;;;;;;53.30;48.72;;;15.50;99.90;;;;;;4954208;28;20680;-70
2024/03/22 11:45:24;;;;;;;50.83;46.55;;;15.50;99.90;;;;;;4952396;28;20051;-70
2024/03/22 11:47:50;;;;;;;51.10;46.38;;;15.60;99.90;;;;;;4947382;28;20430;-69
2024/03/22 11:50:16;;;;;;;50.55;45.95;;;15.70;99.90;;;;;;4920334;28;20061;-70
2024/03/22 11:52:44;;;;;;;55.08;50.30;;;15.80;99.90;;;;;;4949302;28;20132;-69
2024/03/22 11:55:10;;;;;;;51.88;47.38;;;15.90;99.90;;;;;;4951382;28;20055;-69
2024/03/22 11:57:37;;;;;;;53.28;48.15;;;15.70;99.90;;;;;;4926648;28;20562;-68
2024/03/22 12:00:08;;;;;;;52.78;48.08;;;15.60;99.90;;;;;;4918261;28;20097;-70
2024/03/22 12:02:38;;;;;;;50.45;46.05;;;15.50;99.90;;;;;;4965019;28;20052;-70
2024/03/22 12:05:05;;;;;;;48.63;44.22;;;15.50;99.90;;;;;;4967601;28;20046;-69
2024/03/22 12:07:32;;;;;;;49.50;44.85;;;15.60;99.90;;;;;;4954653;28;20042;-67
2024/03/22 12:09:58;;;;;;;48.92;44.60;;;15.40;99.90;;;;;;4951466;28;20117;-70
2024/03/22 12:12:25;;;;;;;50.47;45.88;;;15.20;99.90;;;;;;4968522;28;20043;-69
2024/03/22 12:14:51;;;;;;;50.83;46.30;;;15.20;99.90;;;;;;4949133;28;20058;-70
2024/03/22 12:17:17;;;;;;;51.83;46.50;;;15.10;99.90;;;;;;4950257;28;20038;-68
2024/03/22 12:19:44;;;;;;;49.40;44.72;;;15.10;99.90;;;;;;4964557;28;20073;-69
2024/03/22 12:22:10;;;;;;;51.28;46.50;;;15.20;99.90;;;;;;4950832;28;20050;-70
2024/03/22 12:24:37;;;;;;;51.92;46.90;;;15.00;99.90;;;;;;4948017;28;20219;-69
2024/03/22 12:27:03;;;;;;;49.97;45.22;;;15.10;99.90;;;;;;4956214;28;20043;-69
2024/03/22 12:29:32;;;;;;;49.30;45.10;;;15.10;99.90;;;;;;4948433;28;20042;-69